createdAt,value
2023-05-05T00:00:55.082Z,3.13
2023-05-05T00:03:41.632Z,3.08
2023-05-05T00:06:28.474Z,2.67
2023-05-05T00:09:14.088Z,2.47
2023-05-05T00:11:59.616Z,2.17
2023-05-05T00:14:44.866Z,2.45
2023-05-05T00:17:30.054Z,2.30
2023-05-05T00:20:15.348Z,2.30
2023-05-05T00:23:01.187Z,2.15
2023-05-05T00:25:47.037Z,2.15
2023-05-05T00:28:32.629Z,2.70
2023-05-05T00:31:18.208Z,2.30
2023-05-05T00:34:03.596Z,2.33
2023-05-05T00:36:49.588Z,2.40
2023-05-05T00:39:35.462Z,2.60
2023-05-05T00:42:21.037Z,2.50
2023-05-05T00:45:06.808Z,3.25
2023-05-05T00:47:56.968Z,2.65
2023-05-05T00:50:44.046Z,2.70
2023-05-05T00:53:29.825Z,2.60
2023-05-05T00:56:20.863Z,2.40
2023-05-05T00:59:06.348Z,2.47
2023-05-05T01:01:51.875Z,2.50
2023-05-05T01:04:37.151Z,2.40
2023-05-05T01:07:41.324Z,3.25
2023-05-05T01:10:38.268Z,2.78
2023-05-05T01:13:44.369Z,2.42
2023-05-05T01:16:33.974Z,2.60
2023-05-05T01:19:28.851Z,2.47
2023-05-05T01:22:16.987Z,2.72
2023-05-05T01:25:27.130Z,2.65
2023-05-05T01:28:37.237Z,3.10
2023-05-05T01:31:52.047Z,2.50
2023-05-05T01:34:45.177Z,2.63
2023-05-05T01:37:42.323Z,2.60
2023-05-05T01:40:31.904Z,2.72
2023-05-05T01:43:20.247Z,2.67
2023-05-05T01:46:07.578Z,2.88
2023-05-05T01:48:56.723Z,3.38
2023-05-05T01:51:44.148Z,2.70
2023-05-05T01:54:32.098Z,2.40
2023-05-05T01:57:21.133Z,2.55
2023-05-05T02:00:09.781Z,2.45
2023-05-05T02:03:04.467Z,2.53
2023-05-05T02:05:53.119Z,2.53
2023-05-05T02:08:39.696Z,2.72
2023-05-05T02:11:27.648Z,3.05
2023-05-05T02:14:16.809Z,2.58
2023-05-05T02:17:03.580Z,2.50
2023-05-05T02:19:52.405Z,3.03
2023-05-05T02:22:37.984Z,3.35
2023-05-05T02:25:28.992Z,2.72
2023-05-05T02:28:22.568Z,2.60
2023-05-05T02:31:10.816Z,3.30
2023-05-05T02:33:57.997Z,3.10
2023-05-05T02:36:46.463Z,3.63
2023-05-05T02:39:45.798Z,2.92
2023-05-05T02:45:26.881Z,2.47
2023-05-05T02:48:13.081Z,2.90
2023-05-05T02:50:58.684Z,3.25
2023-05-05T02:53:52.603Z,3.00
2023-05-05T02:56:47.268Z,3.10
2023-05-05T02:59:48.724Z,3.28
2023-05-05T03:03:16.642Z,3.17
2023-05-05T03:06:16.585Z,2.80
2023-05-05T03:09:25.837Z,2.97
2023-05-05T03:12:20.444Z,3.47
2023-05-05T03:15:19.854Z,2.50
2023-05-05T03:18:06.642Z,2.80
2023-05-05T03:20:53.979Z,2.95
2023-05-05T03:23:39.871Z,3.25
2023-05-05T03:26:31.949Z,3.13
2023-05-05T03:29:17.767Z,2.58
2023-05-05T03:32:03.289Z,3.05
2023-05-05T03:34:48.725Z,3.08
2023-05-05T03:37:34.059Z,2.63
2023-05-05T03:40:20.184Z,3.50
2023-05-05T03:43:06.616Z,2.60
2023-05-05T03:45:52.058Z,2.80
2023-05-05T03:48:38.601Z,2.65
2023-05-05T03:51:24.817Z,2.83
2023-05-05T03:54:10.554Z,2.65
2023-05-05T03:56:56.365Z,3.17
2023-05-05T03:59:41.640Z,3.10
2023-05-05T04:02:28.022Z,3.05
2023-05-05T04:05:13.793Z,3.47
2023-05-05T04:07:59.074Z,3.58
2023-05-05T04:10:45.142Z,3.25
2023-05-05T04:13:31.105Z,3.47
2023-05-05T04:16:16.803Z,4.10
2023-05-05T04:19:02.607Z,3.35
2023-05-05T04:21:50.499Z,4.07
2023-05-05T04:24:36.462Z,3.80
2023-05-05T04:27:22.060Z,4.00
2023-05-05T04:30:09.416Z,4.28
2023-05-05T04:32:57.342Z,4.05
2023-05-05T04:35:43.114Z,4.97
2023-05-05T04:38:29.232Z,4.50
2023-05-05T04:41:14.967Z,3.80
2023-05-05T04:44:02.006Z,4.30
2023-05-05T04:46:47.947Z,4.82
2023-05-05T04:49:34.227Z,3.75
2023-05-05T04:52:19.736Z,4.75
2023-05-05T04:55:05.876Z,4.72
2023-05-05T04:57:51.983Z,4.90
2023-05-05T05:00:37.954Z,4.68
2023-05-05T05:03:23.619Z,4.38
2023-05-05T05:06:09.446Z,4.30
2023-05-05T05:08:55.252Z,3.42
2023-05-05T05:11:40.820Z,4.68
2023-05-05T05:14:28.181Z,3.70
2023-05-05T05:17:14.476Z,4.60
2023-05-05T05:20:04.641Z,4.20
2023-05-05T05:22:51.774Z,4.97
2023-05-05T05:25:51.220Z,3.80
2023-05-05T05:28:38.825Z,4.57
2023-05-05T05:31:24.236Z,4.05
2023-05-05T05:34:11.297Z,3.72
2023-05-05T05:36:58.942Z,3.72
2023-05-05T05:39:51.054Z,3.80
2023-05-05T05:42:37.385Z,3.95
2023-05-05T05:45:23.684Z,3.75
2023-05-05T05:48:09.012Z,3.97
2023-05-05T05:50:55.141Z,2.88
2023-05-05T05:53:40.843Z,2.80
2023-05-05T05:56:27.607Z,3.17
2023-05-05T05:59:24.912Z,2.67
2023-05-05T06:02:11.051Z,2.50
2023-05-05T06:04:56.430Z,4.05
2023-05-05T06:07:41.766Z,2.60
2023-05-05T06:10:28.741Z,2.67
2023-05-05T06:13:25.290Z,2.30
2023-05-05T06:16:11.675Z,2.20
2023-05-05T06:18:59.083Z,2.67
2023-05-05T06:21:44.418Z,2.40
2023-05-05T06:24:32.074Z,2.45
2023-05-05T06:27:19.533Z,1.67
2023-05-05T06:30:06.803Z,1.67
2023-05-05T06:32:54.303Z,2.08
2023-05-05T06:35:39.816Z,1.90
2023-05-05T06:38:25.258Z,2.00
2023-05-05T06:41:10.795Z,1.52
2023-05-05T06:43:56.590Z,1.80
2023-05-05T06:46:43.626Z,1.60
2023-05-05T06:49:29.956Z,1.70
2023-05-05T06:52:15.188Z,1.17
2023-05-05T06:55:01.565Z,1.80
2023-05-05T06:57:46.924Z,1.38
2023-05-05T07:00:32.760Z,2.50
2023-05-05T07:03:18.326Z,1.52
2023-05-05T07:06:04.408Z,1.00
2023-05-05T07:08:50.535Z,1.40
2023-05-05T07:11:39.238Z,1.08
2023-05-05T07:14:24.647Z,1.02
2023-05-05T07:17:11.342Z,1.10
2023-05-05T07:19:57.264Z,1.05
2023-05-05T07:22:42.715Z,1.00
2023-05-05T07:25:28.154Z,1.63
2023-05-05T07:28:13.849Z,1.15
2023-05-05T07:30:59.288Z,1.27
2023-05-05T07:33:45.930Z,1.20
2023-05-05T07:36:32.277Z,1.17
2023-05-05T07:39:19.544Z,1.02
2023-05-05T07:42:06.688Z,1.20
2023-05-05T07:44:52.870Z,0.90
2023-05-05T07:47:38.748Z,1.10
2023-05-05T07:50:24.990Z,1.05
2023-05-05T07:53:14.944Z,1.50
2023-05-05T07:56:00.829Z,1.30
2023-05-05T07:58:46.772Z,1.08
2023-05-05T08:01:32.037Z,1.00
2023-05-05T08:04:17.473Z,1.20
2023-05-05T08:07:02.803Z,0.90
2023-05-05T08:09:48.456Z,1.10
2023-05-05T08:12:34.115Z,1.23
2023-05-05T08:15:20.069Z,1.33
2023-05-05T08:18:05.793Z,0.98
2023-05-05T08:20:51.936Z,1.00
2023-05-05T08:23:39.275Z,1.05
2023-05-05T08:26:25.128Z,1.15
2023-05-05T08:29:10.687Z,1.17
2023-05-05T08:31:56.217Z,1.40
2023-05-05T08:34:41.904Z,0.88
2023-05-05T08:37:27.154Z,1.10
2023-05-05T08:40:16.390Z,1.10
2023-05-05T08:43:02.229Z,1.70
2023-05-05T08:45:48.956Z,1.35
2023-05-05T08:48:36.562Z,1.00
2023-05-05T08:51:25.194Z,1.48
2023-05-05T08:54:17.786Z,1.55
2023-05-05T08:57:06.864Z,2.45
2023-05-05T08:59:53.484Z,1.60
2023-05-05T09:02:40.582Z,1.40
2023-05-05T09:05:42.083Z,1.00
2023-05-05T09:08:28.410Z,1.27
2023-05-05T09:11:13.602Z,1.42
2023-05-05T09:13:59.007Z,1.55
2023-05-05T09:16:44.318Z,1.48
2023-05-05T09:19:29.945Z,1.65
2023-05-05T09:22:15.199Z,1.33
2023-05-05T09:25:00.958Z,1.20
2023-05-05T09:27:48.559Z,1.00
2023-05-05T09:30:36.079Z,1.60
2023-05-05T09:33:31.345Z,1.48
2023-05-05T09:36:16.705Z,1.45
2023-05-05T09:39:06.239Z,1.70
2023-05-05T09:41:51.561Z,1.58
2023-05-05T09:44:40.086Z,2.03
2023-05-05T09:47:36.704Z,1.48
2023-05-05T09:50:22.264Z,1.67
2023-05-05T09:53:09.576Z,1.38
2023-05-05T09:55:55.786Z,1.65
2023-05-05T09:58:42.241Z,1.25
2023-05-05T10:01:27.925Z,1.23
2023-05-05T10:04:33.510Z,1.08
2023-05-05T10:07:24.347Z,1.48
2023-05-05T10:10:17.492Z,1.38
2023-05-05T10:13:03.609Z,1.20
2023-05-05T10:15:51.512Z,1.30
2023-05-05T10:18:41.616Z,1.30
2023-05-05T10:21:33.437Z,1.10
2023-05-05T10:24:39.494Z,1.48
2023-05-05T10:27:28.466Z,1.20
2023-05-05T10:30:26.986Z,1.55
2023-05-05T10:33:31.488Z,1.60
2023-05-05T10:36:20.304Z,1.60
2023-05-05T10:39:09.605Z,1.38
2023-05-05T10:41:55.199Z,1.10
2023-05-05T10:44:41.321Z,1.60
2023-05-05T10:47:28.597Z,1.50
2023-05-05T10:50:36.273Z,1.10
2023-05-05T10:53:36.926Z,1.42
2023-05-05T10:56:28.085Z,1.58
2023-05-05T10:59:39.457Z,1.15
2023-05-05T11:02:29.635Z,1.73
2023-05-05T11:05:25.952Z,1.50
2023-05-05T11:08:34.487Z,1.33
2023-05-05T11:11:58.151Z,1.30
2023-05-05T11:14:43.734Z,1.45
2023-05-05T11:17:50.111Z,1.50
2023-05-05T11:20:39.873Z,1.50
2023-05-05T11:23:29.503Z,1.70
2023-05-05T11:26:16.356Z,1.42
2023-05-05T11:29:04.313Z,1.08
2023-05-05T11:32:12.825Z,1.60
2023-05-05T11:34:58.348Z,1.35
2023-05-05T11:37:43.752Z,1.25
2023-05-05T11:40:36.151Z,1.50
2023-05-05T11:43:21.667Z,1.42
2023-05-05T11:46:14.473Z,1.38
2023-05-05T11:49:00.571Z,1.75
2023-05-05T11:51:59.136Z,1.40
2023-05-05T11:54:50.069Z,1.38
2023-05-05T11:57:35.755Z,1.30
2023-05-05T12:00:32.094Z,1.73
2023-05-05T12:03:17.815Z,1.20
2023-05-05T12:06:05.180Z,1.00
2023-05-05T12:08:50.664Z,1.60
2023-05-05T12:11:48.567Z,1.85
2023-05-05T12:14:34.402Z,1.65
2023-05-05T12:17:22.853Z,1.10
2023-05-05T12:20:11.265Z,1.10
2023-05-05T12:23:02.100Z,1.27
2023-05-05T12:25:47.737Z,1.40
2023-05-05T12:28:46.684Z,1.50
2023-05-05T12:31:42.688Z,1.33
2023-05-05T12:34:29.183Z,1.98
2023-05-05T12:37:26.480Z,1.25
2023-05-05T12:40:44.825Z,1.42
2023-05-05T12:43:32.916Z,1.38
2023-05-05T12:46:19.106Z,1.00
2023-05-05T12:49:06.923Z,1.30
2023-05-05T12:51:54.865Z,1.40
2023-05-05T12:55:07.015Z,0.82
2023-05-05T12:58:01.629Z,1.33
2023-05-05T13:01:07.080Z,1.10
2023-05-05T13:04:10.986Z,1.20
2023-05-05T13:07:10.649Z,1.10
2023-05-05T13:10:09.046Z,1.48
2023-05-05T13:12:58.128Z,1.17
2023-05-05T13:15:43.833Z,2.10
2023-05-05T13:18:29.442Z,1.67
2023-05-05T13:21:15.116Z,1.05
2023-05-05T13:24:18.282Z,1.15
2023-05-05T13:27:06.411Z,1.30
2023-05-05T13:29:51.525Z,1.27
2023-05-05T13:32:37.254Z,1.33
2023-05-05T13:35:33.124Z,1.30
2023-05-05T13:38:19.705Z,0.90
2023-05-05T13:41:05.124Z,1.27
2023-05-05T13:43:51.313Z,1.08
2023-05-05T13:46:37.113Z,1.27
2023-05-05T13:49:22.460Z,1.52
2023-05-05T13:52:08.061Z,1.23
2023-05-05T13:54:53.379Z,1.92
2023-05-05T13:57:38.780Z,1.33
2023-05-05T14:00:24.154Z,1.25
2023-05-05T14:03:09.745Z,1.13
2023-05-05T14:05:55.060Z,1.20
2023-05-05T14:08:40.459Z,1.38
2023-05-05T14:11:26.268Z,1.10
2023-05-05T14:14:11.822Z,0.80
2023-05-05T14:16:57.620Z,1.10
2023-05-05T14:19:44.495Z,1.50
2023-05-05T14:22:29.986Z,1.13
2023-05-05T14:25:15.409Z,0.98
2023-05-05T14:28:00.930Z,1.10
2023-05-05T14:30:46.468Z,0.90
2023-05-05T14:33:32.180Z,0.98
2023-05-05T14:36:17.631Z,1.88
2023-05-05T14:39:06.899Z,0.95
2023-05-05T14:41:53.200Z,0.95
2023-05-05T14:44:38.456Z,0.93
2023-05-05T14:47:25.721Z,1.60
2023-05-05T14:50:11.713Z,1.30
2023-05-05T14:52:57.275Z,1.25
2023-05-05T14:55:42.798Z,0.95
2023-05-05T14:58:28.284Z,0.93
2023-05-05T15:01:13.776Z,0.98
2023-05-05T15:04:00.622Z,0.63
2023-05-05T15:06:46.181Z,1.10
2023-05-05T15:09:31.712Z,1.30
2023-05-05T15:12:17.101Z,0.93
2023-05-05T15:15:05.378Z,1.08
2023-05-05T15:17:51.016Z,1.10
2023-05-05T15:20:37.094Z,1.52
2023-05-05T15:23:22.293Z,1.20
2023-05-05T15:26:07.893Z,0.90
2023-05-05T15:28:53.102Z,0.98
2023-05-05T15:31:39.038Z,1.13
2023-05-05T15:34:24.892Z,1.00
2023-05-05T15:37:12.728Z,0.90
2023-05-05T15:39:58.064Z,1.05
2023-05-05T15:42:43.432Z,0.90
2023-05-05T15:45:28.764Z,1.02
2023-05-05T15:48:14.179Z,1.10
2023-05-05T15:50:59.765Z,1.30
2023-05-05T15:53:45.622Z,1.42
2023-05-05T15:56:30.829Z,0.82
2023-05-05T15:59:16.197Z,0.88
2023-05-05T16:02:01.856Z,1.05
2023-05-05T16:04:47.184Z,1.00
2023-05-05T16:07:35.243Z,1.00
2023-05-05T16:10:47.471Z,0.80
2023-05-05T16:13:33.205Z,0.90
2023-05-05T16:16:18.854Z,1.08
2023-05-05T16:19:04.469Z,1.35
2023-05-05T16:21:49.874Z,1.27
2023-05-05T16:24:35.428Z,0.85
2023-05-05T16:27:21.152Z,0.80
2023-05-05T16:30:07.269Z,0.80
2023-05-05T16:32:54.376Z,0.75
2023-05-05T16:35:39.856Z,0.82
2023-05-05T16:38:25.531Z,0.90
2023-05-05T16:41:11.306Z,1.10
2023-05-05T16:43:57.256Z,1.17
2023-05-05T16:46:43.057Z,1.13
2023-05-05T16:49:28.720Z,1.27
2023-05-05T16:52:14.144Z,1.10
2023-05-05T16:54:59.539Z,1.20
2023-05-05T16:57:44.888Z,1.00
2023-05-05T17:00:30.366Z,1.20
2023-05-05T17:03:20.702Z,0.85
2023-05-05T17:06:07.156Z,1.00
2023-05-05T17:08:52.809Z,1.10
2023-05-05T17:11:38.378Z,0.90
2023-05-05T17:14:24.489Z,1.20
2023-05-05T17:17:10.144Z,0.98
2023-05-05T17:19:56.062Z,1.10
2023-05-05T17:22:41.651Z,0.75
2023-05-05T17:25:28.379Z,0.80
2023-05-05T17:28:14.804Z,0.82
2023-05-05T17:31:01.552Z,1.00
2023-05-05T17:33:46.926Z,1.00
2023-05-05T17:36:32.773Z,0.82
2023-05-05T17:39:18.814Z,0.90
2023-05-05T17:42:04.586Z,1.20
2023-05-05T17:44:50.144Z,0.93
2023-05-05T17:47:36.279Z,1.08
2023-05-05T17:50:21.933Z,1.08
2023-05-05T17:53:07.304Z,1.17
2023-05-05T17:55:52.810Z,0.90
2023-05-05T17:58:38.410Z,1.10
2023-05-05T18:01:25.737Z,0.80
2023-05-05T18:04:11.659Z,1.10
2023-05-05T18:06:57.441Z,0.88
2023-05-05T18:09:43.798Z,1.30
2023-05-05T18:12:29.495Z,1.00
2023-05-05T18:15:15.877Z,0.93
2023-05-05T18:18:01.582Z,1.10
2023-05-05T18:20:48.176Z,2.10
2023-05-05T18:23:33.647Z,2.10
2023-05-05T18:26:22.786Z,1.42
2023-05-05T18:29:08.822Z,1.85
2023-05-05T18:31:54.919Z,1.10
2023-05-05T18:34:40.221Z,1.13
2023-05-05T18:37:26.115Z,1.88
2023-05-05T18:40:12.186Z,1.38
2023-05-05T18:42:57.816Z,1.70
2023-05-05T18:45:43.147Z,1.73
2023-05-05T18:48:29.804Z,1.35
2023-05-05T18:51:15.026Z,1.55
2023-05-05T18:54:03.370Z,1.83
2023-05-05T18:56:48.599Z,1.75
2023-05-05T18:59:34.177Z,2.17
2023-05-05T19:02:19.687Z,1.40
2023-05-05T19:05:06.943Z,1.27
2023-05-05T19:07:52.000Z,1.85
2023-05-05T19:10:37.858Z,1.60
2023-05-05T19:13:23.536Z,1.25
2023-05-05T19:16:10.368Z,1.65
2023-05-05T19:18:58.730Z,1.40
2023-05-05T19:21:44.512Z,1.60
2023-05-05T19:24:30.051Z,1.92
2023-05-05T19:27:16.853Z,1.42
2023-05-05T19:30:06.933Z,1.60
2023-05-05T19:32:52.321Z,1.88
2023-05-05T19:35:37.648Z,1.63
2023-05-05T19:38:22.983Z,1.60
2023-05-05T19:41:08.490Z,1.55
2023-05-05T19:43:53.946Z,1.30
2023-05-05T19:46:39.527Z,1.42
2023-05-05T19:49:27.037Z,1.50
2023-05-05T19:52:12.668Z,1.30
2023-05-05T19:54:58.953Z,1.27
2023-05-05T19:57:44.771Z,1.35
2023-05-05T20:00:30.133Z,1.30
2023-05-05T20:03:15.736Z,1.65
2023-05-05T20:06:01.440Z,1.27
2023-05-05T20:08:46.786Z,1.48
2023-05-05T20:11:32.588Z,1.50
2023-05-05T20:14:18.053Z,1.73
2023-05-05T20:17:03.559Z,1.33
2023-05-05T20:19:49.673Z,1.35
2023-05-05T20:22:35.038Z,1.50
2023-05-05T20:25:20.314Z,1.40
2023-05-05T20:28:05.722Z,1.60
2023-05-05T20:30:51.077Z,1.50
2023-05-05T20:33:36.718Z,1.70
2023-05-05T20:36:22.855Z,2.08
2023-05-05T20:39:09.533Z,1.58
2023-05-05T20:41:54.751Z,1.40
2023-05-05T20:44:40.089Z,2.00
2023-05-05T20:47:26.826Z,1.60
2023-05-05T20:50:12.298Z,2.00
2023-05-05T20:52:58.816Z,1.45
2023-05-05T20:55:45.906Z,1.60
2023-05-05T20:58:31.259Z,1.55
2023-05-05T21:01:16.936Z,1.35
2023-05-05T21:04:02.320Z,2.05
2023-05-05T21:06:47.620Z,1.85
2023-05-05T21:09:35.294Z,1.52
2023-05-05T21:12:20.608Z,1.58
2023-05-05T21:15:07.246Z,1.40
2023-05-05T21:17:53.281Z,2.47
2023-05-05T21:20:38.652Z,2.75
2023-05-05T21:23:24.225Z,1.83
2023-05-05T21:26:09.614Z,1.48
2023-05-05T21:28:55.063Z,1.70
2023-05-05T21:31:40.578Z,3.65
2023-05-05T21:34:26.098Z,2.53
2023-05-05T21:37:12.169Z,2.13
2023-05-05T21:39:57.801Z,2.03
2023-05-05T21:42:43.752Z,1.60
2023-05-05T21:45:29.018Z,1.75
2023-05-05T21:48:14.451Z,1.80
2023-05-05T21:51:00.111Z,1.83
2023-05-05T21:53:45.301Z,1.65
2023-05-05T21:56:30.598Z,1.77
2023-05-05T21:59:17.148Z,2.00
2023-05-05T22:02:03.044Z,1.60
2023-05-05T22:04:51.169Z,1.73
2023-05-05T22:07:36.565Z,1.73
2023-05-05T22:10:22.031Z,1.75
2023-05-05T22:13:10.612Z,2.08
2023-05-05T22:15:56.315Z,1.98
2023-05-05T22:18:41.584Z,1.75
2023-05-05T22:21:27.599Z,1.90
2023-05-05T22:24:13.284Z,1.80
2023-05-05T22:26:58.627Z,2.03
2023-05-05T22:29:43.950Z,2.05
2023-05-05T22:32:29.672Z,2.58
2023-05-05T22:35:15.312Z,2.03
2023-05-05T22:38:01.466Z,1.98
2023-05-05T22:40:47.170Z,1.63
2023-05-05T22:43:32.408Z,2.05
2023-05-05T22:46:17.997Z,2.00
2023-05-05T22:49:03.451Z,1.83
2023-05-05T22:51:48.796Z,1.88
2023-05-05T22:54:34.253Z,2.28
2023-05-05T22:57:19.612Z,2.17
2023-05-05T23:00:05.581Z,1.50
2023-05-05T23:02:51.168Z,2.00
2023-05-05T23:05:36.641Z,2.40
2023-05-05T23:08:24.011Z,1.83
2023-05-05T23:11:09.625Z,2.13
2023-05-05T23:13:54.792Z,1.63
2023-05-05T23:16:40.335Z,2.08
2023-05-05T23:19:26.300Z,2.00
2023-05-05T23:22:11.670Z,1.90
2023-05-05T23:24:57.102Z,2.00
2023-05-05T23:27:42.457Z,2.13
2023-05-05T23:30:28.050Z,1.95
2023-05-05T23:33:13.287Z,2.25
2023-05-05T23:35:58.635Z,1.88
2023-05-05T23:38:43.871Z,1.95
2023-05-05T23:41:29.383Z,2.03
2023-05-05T23:44:14.930Z,1.90
2023-05-05T23:47:00.563Z,1.77
2023-05-05T23:49:46.318Z,1.65
2023-05-05T23:52:31.983Z,2.08
2023-05-05T23:55:17.384Z,2.25
2023-05-05T23:58:02.935Z,1.90
